PROFILE

 METAR AND TAF INFORMATION
ADDS - METARS form results

(1507 UTC 20 June 2019)
http://aviationweather.gov/metar/data/
 
SAWH 201500Z 23024G31KT 9999 VCSH SCT035 SCT045 03/00 Q1000
TAF SAWH 201100Z 2012/2112 25020KT 9999 BKN020 BKN030 TX03/2019Z TN00/2110Z TEMPO 2012/2015 5000 SHSN BECMG 2018/2020 VRB07KT 

 AIRPORT MAP

 RUNWAY INFORMATION
Runway 7 Runway length 9186 ft Runway width 148 ft
Runway elevation 85 ft Runway displaced threshold 591 ft Runway heading 86
Runway 25 Runway length 9186 ft Runway width 148 ft
Runway elevation 74 ft Runway displaced threshold 525 ft Runway heading 266

 AIRPORT FREQUENCIES
Type RDO Name RDO Frequency 122.1 MHZ
Type TWR Name TWR/APP Frequency 118.1 MHZ

 AIRPORT NEAR NAVIGATION AIDS
Type VOR Name Ushuaia Frequency 113700 KHZ